createdAt,value
2019-03-25T00:01:11.693Z,48.39
2019-03-25T00:03:37.592Z,48.44
2019-03-25T00:06:03.545Z,48.47
2019-03-25T00:08:29.506Z,48.47
2019-03-25T00:10:55.365Z,48.48
2019-03-25T00:13:21.380Z,48.47
2019-03-25T00:15:47.237Z,48.55
2019-03-25T00:18:13.103Z,48.57
2019-03-25T00:20:38.947Z,48.56
2019-03-25T00:23:04.938Z,48.59
2019-03-25T00:25:30.803Z,48.61
2019-03-25T00:27:56.635Z,48.62
2019-03-25T00:30:22.489Z,48.64
2019-03-25T00:32:48.376Z,48.67
2019-03-25T00:35:14.266Z,48.63
2019-03-25T00:37:40.127Z,48.72
2019-03-25T00:40:06.280Z,48.71
2019-03-25T00:42:32.249Z,48.73
2019-03-25T00:44:58.197Z,48.78
2019-03-25T00:47:24.121Z,48.79
2019-03-25T00:49:50.083Z,48.78
2019-03-25T00:52:15.988Z,48.80
2019-03-25T00:54:49.945Z,48.79
2019-03-25T00:57:09.831Z,48.76
2019-03-25T00:59:35.697Z,48.83
2019-03-25T01:02:01.595Z,48.86
2019-03-25T01:04:27.581Z,48.91
2019-03-25T01:06:53.434Z,48.92
2019-03-25T01:09:19.480Z,48.86
2019-03-25T01:11:49.331Z,48.91
2019-03-25T01:14:13.303Z,48.94
2019-03-25T01:16:39.196Z,49.00
2019-03-25T01:19:05.240Z,49.02
2019-03-25T01:21:31.088Z,48.99
2019-03-25T01:23:57.103Z,48.98
2019-03-25T01:26:23.091Z,49.00
2019-03-25T01:28:48.937Z,48.97
2019-03-25T01:31:14.811Z,48.98
2019-03-25T01:33:40.674Z,48.99
2019-03-25T01:36:06.515Z,49.09
2019-03-25T01:38:32.519Z,49.14
2019-03-25T01:40:58.481Z,49.14
2019-03-25T01:43:24.420Z,49.14
2019-03-25T01:45:50.260Z,49.11
2019-03-25T01:48:16.137Z,49.18
2019-03-25T01:50:42.003Z,49.19
2019-03-25T01:53:07.962Z,49.21
2019-03-25T01:55:33.815Z,49.23
2019-03-25T01:57:59.704Z,49.28
2019-03-25T02:00:25.704Z,49.31
2019-03-25T02:02:51.552Z,49.34
2019-03-25T02:05:17.404Z,49.37
2019-03-25T02:07:43.290Z,49.41
2019-03-25T02:10:10.488Z,49.53
2019-03-25T02:12:36.428Z,49.53
2019-03-25T02:15:02.623Z,49.57
2019-03-25T02:17:28.517Z,49.58
2019-03-25T02:19:54.492Z,49.69
2019-03-25T02:22:20.524Z,49.67
2019-03-25T02:24:46.343Z,49.64
2019-03-25T02:27:12.211Z,49.67
2019-03-25T02:29:38.103Z,49.71
2019-03-25T02:32:04.058Z,49.75
2019-03-25T02:34:29.906Z,49.70
2019-03-25T02:36:55.831Z,49.68
2019-03-25T02:39:21.681Z,49.74
2019-03-25T02:41:47.640Z,49.77
2019-03-25T02:44:13.512Z,49.71
2019-03-25T02:46:39.358Z,49.75
2019-03-25T02:49:05.248Z,49.80
2019-03-25T02:51:31.333Z,49.89
2019-03-25T02:53:57.252Z,49.88
2019-03-25T02:56:23.098Z,49.86
2019-03-25T02:58:48.987Z,49.90
2019-03-25T03:01:14.965Z,49.95
2019-03-25T03:03:40.831Z,49.99
2019-03-25T03:06:06.784Z,49.98
2019-03-25T03:08:32.649Z,50.00
2019-03-25T03:10:58.614Z,50.04
2019-03-25T03:13:24.623Z,50.03
2019-03-25T03:15:51.114Z,50.09
2019-03-25T03:18:16.988Z,50.08
2019-03-25T03:20:42.998Z,50.16
2019-03-25T03:23:09.083Z,50.09
2019-03-25T03:25:34.980Z,50.09
2019-03-25T03:28:01.148Z,50.09
2019-03-25T03:30:26.999Z,50.09
2019-03-25T03:32:52.837Z,50.05
2019-03-25T03:35:18.855Z,50.07
2019-03-25T03:37:44.822Z,50.10
2019-03-25T03:40:10.764Z,50.08
2019-03-25T03:42:36.764Z,50.09
2019-03-25T03:45:03.823Z,50.13
2019-03-25T03:47:29.695Z,50.14
2019-03-25T03:49:55.606Z,50.13
2019-03-25T03:52:21.558Z,50.20
2019-03-25T03:54:47.618Z,50.19
2019-03-25T03:57:13.590Z,50.21
2019-03-25T03:59:39.436Z,50.29
2019-03-25T04:02:05.298Z,50.26
2019-03-25T04:04:31.189Z,50.24
2019-03-25T04:06:57.083Z,50.25
2019-03-25T04:09:23.049Z,50.29
2019-03-25T04:11:49.016Z,50.30
2019-03-25T04:14:14.972Z,50.36
2019-03-25T04:16:40.971Z,50.35
2019-03-25T04:19:06.816Z,50.40
2019-03-25T04:21:32.698Z,50.46
2019-03-25T04:23:58.762Z,50.37
2019-03-25T04:26:28.861Z,50.37
2019-03-25T04:28:52.295Z,50.44
2019-03-25T04:31:18.176Z,50.49
2019-03-25T04:33:44.026Z,50.49
2019-03-25T04:36:09.883Z,50.50
2019-03-25T04:38:35.800Z,50.45
2019-03-25T04:41:02.180Z,50.51
2019-03-25T04:43:28.020Z,50.53
2019-03-25T04:45:53.899Z,50.56
2019-03-25T04:48:19.773Z,50.59
2019-03-25T04:50:45.733Z,50.58
2019-03-25T04:53:11.583Z,50.65
2019-03-25T04:55:37.475Z,50.67
2019-03-25T04:58:03.453Z,50.57
2019-03-25T05:00:31.239Z,50.57
2019-03-25T05:02:57.122Z,50.61
2019-03-25T05:05:25.985Z,50.61
2019-03-25T05:07:51.846Z,50.58
2019-03-25T05:10:17.731Z,50.55
2019-03-25T05:12:43.579Z,50.60
2019-03-25T05:15:09.531Z,50.54
2019-03-25T05:17:36.854Z,50.64
2019-03-25T05:20:03.687Z,50.71
2019-03-25T05:22:29.564Z,50.71
2019-03-25T05:24:55.527Z,50.64
2019-03-25T05:27:21.371Z,50.66
2019-03-25T05:29:47.315Z,50.61
2019-03-25T05:32:13.233Z,50.62
2019-03-25T05:34:39.074Z,50.65
2019-03-25T05:37:04.957Z,50.65
2019-03-25T05:39:30.834Z,50.67
2019-03-25T05:41:56.810Z,50.66
2019-03-25T05:44:22.674Z,50.67
2019-03-25T05:46:48.535Z,50.67
2019-03-25T05:49:14.378Z,50.65
2019-03-25T05:51:40.346Z,50.61
2019-03-25T05:54:06.329Z,50.62
2019-03-25T05:56:32.624Z,50.66
2019-03-25T05:58:58.477Z,50.61
2019-03-25T06:01:25.081Z,50.63
2019-03-25T06:03:50.937Z,50.63
2019-03-25T06:06:16.791Z,50.68
2019-03-25T06:08:42.871Z,50.65
2019-03-25T06:11:08.726Z,50.70
2019-03-25T06:13:35.413Z,50.73
2019-03-25T06:16:01.392Z,50.70
2019-03-25T06:18:27.419Z,50.70
2019-03-25T06:20:53.267Z,50.72
2019-03-25T06:23:19.499Z,50.74
2019-03-25T06:25:45.548Z,50.78
2019-03-25T06:28:11.417Z,50.74
2019-03-25T06:30:37.296Z,50.79
2019-03-25T06:33:11.903Z,50.78
2019-03-25T06:35:30.936Z,50.74
2019-03-25T06:37:56.995Z,50.76
2019-03-25T06:40:22.900Z,50.77
2019-03-25T06:42:48.958Z,50.83
2019-03-25T06:45:14.922Z,50.80
2019-03-25T06:47:40.906Z,50.82
2019-03-25T06:50:07.167Z,50.88
2019-03-25T06:52:33.220Z,50.89
2019-03-25T06:54:59.071Z,50.96
2019-03-25T06:57:25.931Z,50.95
2019-03-25T06:59:52.245Z,50.91
2019-03-25T07:02:18.093Z,50.88
2019-03-25T07:04:44.111Z,50.87
2019-03-25T07:07:09.959Z,50.88
2019-03-25T07:09:36.109Z,50.88
2019-03-25T07:12:02.176Z,50.87
2019-03-25T07:14:28.824Z,50.89
2019-03-25T07:16:54.705Z,50.88
2019-03-25T07:19:20.870Z,50.90
2019-03-25T07:21:46.911Z,50.89
2019-03-25T07:24:12.820Z,50.92
2019-03-25T07:26:38.725Z,50.88
2019-03-25T07:29:05.714Z,50.88
2019-03-25T07:31:31.598Z,50.88
2019-03-25T07:33:57.434Z,50.89
2019-03-25T07:36:23.283Z,50.86
2019-03-25T07:38:49.181Z,50.92
2019-03-25T07:41:17.046Z,50.92
2019-03-25T07:43:42.748Z,50.98
2019-03-25T07:46:08.625Z,50.97
2019-03-25T07:48:34.607Z,50.95
2019-03-25T07:51:00.588Z,50.94
2019-03-25T07:53:26.450Z,50.95
2019-03-25T07:55:52.309Z,50.95
2019-03-25T07:58:18.295Z,50.94
2019-03-25T08:00:44.202Z,50.95
2019-03-25T08:03:10.032Z,50.95
2019-03-25T08:05:35.905Z,50.95
2019-03-25T08:08:01.898Z,50.97
2019-03-25T08:10:30.212Z,50.97
2019-03-25T08:12:56.095Z,50.96
2019-03-25T08:15:21.953Z,50.92
2019-03-25T08:17:47.798Z,50.91
2019-03-25T08:20:14.049Z,50.96
2019-03-25T08:22:40.060Z,50.99
2019-03-25T08:25:06.140Z,50.94
2019-03-25T08:27:31.978Z,50.99
2019-03-25T08:29:57.846Z,51.00
2019-03-25T08:32:23.936Z,50.99
2019-03-25T08:34:49.894Z,50.91
2019-03-25T08:37:15.778Z,50.89
2019-03-25T08:39:44.579Z,50.87
2019-03-25T08:42:10.433Z,50.78
2019-03-25T08:44:36.660Z,50.75
2019-03-25T08:47:02.511Z,50.78
2019-03-25T08:49:28.741Z,50.84
2019-03-25T08:51:54.762Z,50.82
2019-03-25T08:54:20.624Z,50.81
2019-03-25T08:56:46.580Z,50.83
2019-03-25T08:59:12.696Z,50.77
2019-03-25T09:01:38.661Z,50.77
2019-03-25T09:04:04.646Z,50.73
2019-03-25T09:06:30.537Z,50.75
2019-03-25T09:08:56.392Z,50.71
2019-03-25T09:11:23.198Z,50.72
2019-03-25T09:13:49.246Z,50.72
2019-03-25T09:16:15.216Z,50.66
2019-03-25T09:18:41.173Z,50.62
2019-03-25T09:21:07.202Z,50.61
2019-03-25T09:23:35.293Z,50.57
2019-03-25T09:26:01.279Z,50.55
2019-03-25T09:28:27.212Z,50.55
2019-03-25T09:30:56.877Z,50.58
2019-03-25T09:33:22.845Z,50.53
2019-03-25T09:35:50.018Z,50.46
2019-03-25T09:38:15.935Z,50.47
2019-03-25T09:40:41.879Z,50.44
2019-03-25T09:43:07.772Z,50.41
2019-03-25T09:45:33.674Z,50.37
2019-03-25T09:47:59.937Z,50.37
2019-03-25T09:50:25.809Z,50.30
2019-03-25T09:52:51.669Z,50.24
2019-03-25T09:55:17.549Z,50.17
2019-03-25T09:57:43.853Z,50.15
2019-03-25T10:00:10.265Z,50.00
2019-03-25T10:02:36.303Z,50.04
2019-03-25T10:05:02.305Z,49.93
2019-03-25T10:07:28.456Z,49.79
2019-03-25T10:09:56.308Z,49.59
2019-03-25T10:12:22.190Z,49.50
2019-03-25T10:14:48.026Z,49.43
2019-03-25T10:17:13.903Z,49.41
2019-03-25T10:19:40.574Z,49.43
2019-03-25T10:22:06.648Z,49.24
2019-03-25T10:24:32.546Z,49.37
2019-03-25T10:26:58.370Z,49.43
2019-03-25T10:29:24.254Z,49.39
2019-03-25T10:31:50.213Z,49.30
2019-03-25T10:34:16.213Z,49.01
2019-03-25T10:36:42.185Z,48.99
2019-03-25T10:39:08.149Z,48.90
2019-03-25T10:41:38.531Z,48.88
2019-03-25T10:44:04.616Z,48.79
2019-03-25T10:46:30.455Z,48.65
2019-03-25T10:48:56.377Z,48.72
2019-03-25T10:51:22.239Z,48.50
2019-03-25T10:53:48.116Z,48.29
2019-03-25T10:56:14.098Z,48.47
2019-03-25T10:58:39.949Z,48.36
2019-03-25T11:01:05.991Z,48.35
2019-03-25T11:03:32.081Z,48.16
2019-03-25T11:05:58.063Z,47.99
2019-03-25T11:08:23.895Z,48.03
2019-03-25T11:10:49.898Z,48.05
2019-03-25T11:13:15.875Z,48.06
2019-03-25T11:15:41.732Z,48.06
2019-03-25T11:18:07.699Z,48.24
2019-03-25T11:20:33.607Z,48.39
2019-03-25T11:22:59.755Z,48.38
2019-03-25T11:25:25.754Z,48.39
2019-03-25T11:27:54.514Z,48.44
2019-03-25T11:30:21.176Z,48.67
2019-03-25T11:32:47.062Z,48.79
2019-03-25T11:35:13.118Z,48.86
2019-03-25T11:37:38.985Z,48.95
2019-03-25T11:40:05.884Z,48.83
2019-03-25T11:42:31.877Z,48.86
2019-03-25T11:44:57.841Z,48.85
2019-03-25T11:47:23.899Z,48.92
2019-03-25T11:49:49.674Z,48.78
2019-03-25T11:52:15.522Z,48.75
2019-03-25T11:54:41.519Z,48.80
2019-03-25T11:57:07.370Z,48.86
2019-03-25T11:59:33.252Z,48.85
2019-03-25T12:01:59.127Z,48.87
2019-03-25T12:04:25.196Z,48.97
2019-03-25T12:06:51.141Z,49.05
2019-03-25T12:09:17.031Z,49.06
2019-03-25T12:11:42.993Z,48.88
2019-03-25T12:14:08.863Z,48.58
2019-03-25T12:16:36.440Z,48.42
2019-03-25T12:19:02.706Z,48.40
2019-03-25T12:21:28.567Z,48.34
2019-03-25T12:23:54.579Z,48.29
2019-03-25T12:26:20.533Z,48.26
2019-03-25T12:28:47.360Z,48.44
2019-03-25T12:31:13.259Z,48.53
2019-03-25T12:33:39.122Z,48.49
2019-03-25T12:36:05.504Z,48.46
2019-03-25T12:38:31.504Z,48.28
2019-03-25T12:40:57.353Z,48.21
2019-03-25T12:43:23.307Z,48.18
2019-03-25T12:45:49.196Z,48.14
2019-03-25T12:48:15.171Z,48.09
2019-03-25T12:50:41.037Z,47.99
2019-03-25T12:53:07.040Z,47.99
2019-03-25T12:55:32.920Z,48.08
2019-03-25T12:57:58.773Z,48.08
2019-03-25T13:00:26.562Z,48.08
2019-03-25T13:02:52.648Z,47.95
2019-03-25T13:05:18.640Z,47.71
2019-03-25T13:07:44.555Z,47.64
2019-03-25T13:10:10.528Z,47.63
2019-03-25T13:12:36.370Z,47.71
2019-03-25T13:15:03.044Z,47.84
2019-03-25T13:17:28.886Z,47.87
2019-03-25T13:19:54.761Z,47.89
2019-03-25T13:22:20.752Z,48.00
2019-03-25T13:24:46.825Z,47.82
2019-03-25T13:27:12.771Z,47.89
2019-03-25T13:29:38.683Z,48.03
2019-03-25T13:32:04.522Z,48.02
2019-03-25T13:34:32.271Z,47.96
2019-03-25T13:36:58.357Z,47.92
2019-03-25T13:39:24.216Z,48.03
2019-03-25T13:41:50.075Z,48.13
2019-03-25T13:44:15.990Z,48.12
2019-03-25T13:46:41.858Z,48.11
2019-03-25T13:49:07.714Z,48.14
2019-03-25T13:51:33.611Z,48.15
2019-03-25T13:53:59.485Z,48.00
2019-03-25T13:56:25.463Z,47.96
2019-03-25T13:58:51.302Z,47.98
2019-03-25T14:01:17.148Z,48.14
2019-03-25T14:03:43.063Z,48.18
2019-03-25T14:06:08.917Z,48.22
2019-03-25T14:08:34.776Z,48.17
2019-03-25T14:11:00.782Z,48.22
2019-03-25T14:13:26.629Z,48.24
2019-03-25T14:15:52.612Z,48.28
2019-03-25T14:18:18.482Z,48.31
2019-03-25T14:20:44.327Z,48.19
2019-03-25T14:23:10.393Z,48.26
2019-03-25T14:25:36.442Z,48.28
2019-03-25T14:28:02.524Z,48.35
2019-03-25T14:30:28.381Z,48.34
2019-03-25T14:32:54.475Z,48.32
2019-03-25T14:35:20.348Z,48.34
2019-03-25T14:37:46.309Z,48.32
2019-03-25T14:40:12.366Z,48.21
2019-03-25T14:42:38.494Z,48.28
2019-03-25T14:45:04.973Z,48.36
2019-03-25T14:47:31.077Z,48.43
2019-03-25T14:49:56.923Z,48.40
2019-03-25T14:52:22.762Z,48.38
2019-03-25T14:54:48.919Z,48.34
2019-03-25T14:57:14.804Z,48.34
2019-03-25T14:59:40.780Z,48.30
2019-03-25T15:02:06.956Z,48.32
2019-03-25T15:04:32.921Z,48.31
2019-03-25T15:06:58.965Z,48.34
2019-03-25T15:09:25.021Z,48.40
2019-03-25T15:11:50.889Z,48.43
2019-03-25T15:14:16.842Z,48.38
2019-03-25T15:16:43.181Z,48.40
2019-03-25T15:19:09.165Z,48.42
2019-03-25T15:21:35.159Z,48.37
2019-03-25T15:24:01.275Z,48.23
2019-03-25T15:26:27.140Z,48.29
2019-03-25T15:28:53.017Z,48.35
2019-03-25T15:31:19.094Z,48.41
2019-03-25T15:33:45.056Z,48.35
2019-03-25T15:36:10.983Z,48.30
2019-03-25T15:38:37.126Z,48.22
2019-03-25T15:41:02.977Z,48.26
2019-03-25T15:43:28.895Z,48.23
2019-03-25T15:45:54.839Z,48.21
2019-03-25T15:48:20.716Z,48.05
2019-03-25T15:50:46.715Z,48.06
2019-03-25T15:53:12.766Z,48.08
2019-03-25T15:55:38.621Z,48.13
2019-03-25T15:58:04.605Z,48.21
2019-03-25T16:00:30.735Z,48.32
2019-03-25T16:02:56.602Z,48.27
2019-03-25T16:05:22.616Z,48.33
2019-03-25T16:07:48.736Z,48.36
2019-03-25T16:10:15.502Z,48.24
2019-03-25T16:12:41.384Z,48.33
2019-03-25T16:15:07.977Z,48.37
2019-03-25T16:17:33.942Z,48.39
2019-03-25T16:19:59.901Z,48.41
2019-03-25T16:22:25.934Z,48.43
2019-03-25T16:24:51.881Z,48.46
2019-03-25T16:27:17.773Z,48.52
2019-03-25T16:29:43.803Z,48.48
2019-03-25T16:32:09.769Z,48.46
2019-03-25T16:34:35.746Z,48.50
2019-03-25T16:37:01.763Z,48.51
2019-03-25T16:39:27.751Z,48.46
2019-03-25T16:41:53.634Z,48.49
2019-03-25T16:44:19.671Z,48.56
2019-03-25T16:46:45.531Z,48.54
2019-03-25T16:49:11.408Z,48.51
2019-03-25T16:51:37.360Z,48.54
2019-03-25T16:54:03.352Z,48.57
2019-03-25T16:56:30.187Z,48.63
2019-03-25T16:58:56.145Z,48.75
2019-03-25T17:01:22.053Z,48.78
2019-03-25T17:03:47.932Z,48.77
2019-03-25T17:06:14.041Z,48.79
2019-03-25T17:08:39.976Z,48.79
2019-03-25T17:11:05.976Z,48.75
2019-03-25T17:13:31.912Z,48.76
2019-03-25T17:15:57.788Z,48.78
2019-03-25T17:18:23.763Z,48.74
2019-03-25T17:20:51.281Z,48.79
2019-03-25T17:23:17.171Z,48.78
2019-03-25T17:25:52.704Z,48.83
2019-03-25T17:28:11.030Z,48.82
2019-03-25T17:30:37.017Z,48.88
2019-03-25T17:33:02.870Z,48.95
2019-03-25T17:35:28.875Z,49.01
2019-03-25T17:37:54.890Z,48.99
2019-03-25T17:40:20.794Z,49.04
2019-03-25T17:42:46.701Z,49.00
2019-03-25T17:45:13.004Z,49.11
2019-03-25T17:47:38.909Z,49.26
2019-03-25T17:50:05.749Z,49.29
2019-03-25T17:52:31.647Z,49.32
2019-03-25T17:54:57.635Z,49.37
2019-03-25T17:57:23.647Z,49.43
2019-03-25T17:59:49.550Z,49.48
2019-03-25T18:02:15.430Z,49.49
2019-03-25T18:04:41.485Z,49.59
2019-03-25T18:07:07.385Z,49.62
2019-03-25T18:09:33.242Z,49.62
2019-03-25T18:11:59.315Z,49.60
2019-03-25T18:14:25.194Z,49.56
2019-03-25T18:16:51.083Z,49.61
2019-03-25T18:19:17.217Z,49.67
2019-03-25T18:21:43.094Z,49.66
2019-03-25T18:24:09.066Z,49.66
2019-03-25T18:26:35.105Z,49.71
2019-03-25T18:29:01.051Z,49.72
2019-03-25T18:31:26.953Z,49.84
2019-03-25T18:33:52.883Z,49.92
2019-03-25T18:36:18.898Z,49.86
2019-03-25T18:38:44.783Z,50.01
2019-03-25T18:41:10.829Z,50.15
2019-03-25T18:43:36.716Z,50.16
2019-03-25T18:46:02.687Z,50.11
2019-03-25T18:48:28.833Z,50.06
2019-03-25T18:50:54.719Z,50.03
2019-03-25T18:53:24.733Z,50.01
2019-03-25T18:55:50.832Z,50.04
2019-03-25T18:58:16.835Z,50.05
2019-03-25T19:00:43.906Z,50.19
2019-03-25T19:03:10.165Z,50.19
2019-03-25T19:05:35.983Z,50.40
2019-03-25T19:08:02.792Z,50.51
2019-03-25T19:10:29.121Z,50.51
2019-03-25T19:12:55.108Z,50.45
2019-03-25T19:15:20.978Z,50.40
2019-03-25T19:17:47.000Z,50.34
2019-03-25T19:20:12.886Z,50.34
2019-03-25T19:22:38.751Z,50.35
2019-03-25T19:25:05.055Z,50.33
2019-03-25T19:27:30.998Z,50.28
2019-03-25T19:29:56.847Z,50.41
2019-03-25T19:32:22.856Z,50.42
2019-03-25T19:34:48.748Z,50.47
2019-03-25T19:37:15.828Z,50.41
2019-03-25T19:39:41.936Z,50.36
2019-03-25T19:42:08.012Z,50.59
2019-03-25T19:44:33.899Z,50.74
2019-03-25T19:46:59.929Z,50.72
2019-03-25T19:49:25.861Z,50.68
2019-03-25T19:51:51.812Z,50.63
2019-03-25T19:54:17.761Z,50.60
2019-03-25T19:56:43.744Z,50.61
2019-03-25T19:59:09.817Z,50.57
2019-03-25T20:01:35.964Z,50.59
2019-03-25T20:04:01.976Z,50.51
2019-03-25T20:06:27.945Z,50.69
2019-03-25T20:08:54.011Z,50.88
2019-03-25T20:11:20.088Z,50.97
2019-03-25T20:13:45.971Z,51.00
2019-03-25T20:16:11.959Z,51.00
2019-03-25T20:18:38.116Z,50.87
2019-03-25T20:21:04.120Z,50.91
2019-03-25T20:23:30.120Z,51.11
2019-03-25T20:25:56.006Z,51.19
2019-03-25T20:28:21.857Z,51.17
2019-03-25T20:30:47.884Z,51.08
2019-03-25T20:33:14.119Z,51.01
2019-03-25T20:35:40.228Z,50.95
2019-03-25T20:38:06.368Z,50.92
2019-03-25T20:40:32.256Z,50.86
2019-03-25T20:42:58.089Z,50.95
2019-03-25T20:45:24.210Z,50.99
2019-03-25T20:47:50.240Z,51.01
2019-03-25T20:50:16.207Z,51.15
2019-03-25T20:52:42.257Z,51.33
2019-03-25T20:55:08.259Z,51.50
2019-03-25T20:57:34.257Z,51.50
2019-03-25T21:00:00.472Z,51.44
2019-03-25T21:02:28.265Z,51.37
2019-03-25T21:04:54.146Z,51.33
2019-03-25T21:07:20.379Z,51.28
2019-03-25T21:09:46.408Z,51.28
2019-03-25T21:12:12.371Z,51.20
2019-03-25T21:14:38.394Z,51.27
2019-03-25T21:17:04.386Z,51.53
2019-03-25T21:19:30.344Z,51.62
2019-03-25T21:21:56.413Z,51.59
2019-03-25T21:24:22.364Z,51.56
2019-03-25T21:26:48.163Z,51.52
2019-03-25T21:29:14.199Z,51.47
2019-03-25T21:31:40.167Z,51.41
2019-03-25T21:34:06.167Z,51.37
2019-03-25T21:36:32.155Z,51.33
2019-03-25T21:38:58.070Z,51.25
2019-03-25T21:41:24.064Z,51.26
2019-03-25T21:43:50.089Z,51.25
2019-03-25T21:46:15.971Z,51.22
2019-03-25T21:48:41.877Z,51.20
2019-03-25T21:51:07.932Z,51.23
2019-03-25T21:53:33.757Z,51.24
2019-03-25T21:55:59.756Z,51.30
2019-03-25T21:58:26.011Z,51.30
2019-03-25T22:00:51.906Z,51.33
2019-03-25T22:03:19.221Z,51.34
2019-03-25T22:05:45.258Z,51.34
2019-03-25T22:08:11.108Z,51.29
2019-03-25T22:10:37.169Z,51.22
2019-03-25T22:13:03.390Z,51.42
2019-03-25T22:15:29.368Z,51.48
2019-03-25T22:17:55.211Z,51.47
2019-03-25T22:20:21.275Z,51.40
2019-03-25T22:22:47.144Z,51.40
2019-03-25T22:25:13.138Z,51.50
2019-03-25T22:27:39.214Z,51.62
2019-03-25T22:30:05.569Z,51.67
2019-03-25T22:32:31.572Z,51.57
2019-03-25T22:34:57.533Z,51.57
2019-03-25T22:37:23.378Z,51.72
2019-03-25T22:39:49.240Z,51.76
2019-03-25T22:42:15.439Z,51.76
2019-03-25T22:44:41.320Z,51.72
2019-03-25T22:47:07.310Z,51.72
2019-03-25T22:49:33.397Z,51.66
2019-03-25T22:51:59.317Z,51.62
2019-03-25T22:54:25.192Z,51.59
2019-03-25T22:56:51.253Z,51.58
2019-03-25T22:59:17.109Z,51.62
2019-03-25T23:01:43.092Z,51.62
2019-03-25T23:04:09.163Z,51.60
2019-03-25T23:06:35.130Z,51.58
2019-03-25T23:09:00.999Z,51.55
2019-03-25T23:11:27.070Z,51.42
2019-03-25T23:13:53.047Z,51.46
2019-03-25T23:16:19.036Z,51.54
2019-03-25T23:18:45.044Z,51.73
2019-03-25T23:21:11.014Z,51.90
2019-03-25T23:23:36.873Z,52.13
2019-03-25T23:26:04.851Z,52.19
2019-03-25T23:28:30.728Z,52.22
2019-03-25T23:30:56.669Z,52.16
2019-03-25T23:33:22.756Z,52.22
2019-03-25T23:35:48.717Z,52.33
2019-03-25T23:38:14.714Z,52.30
2019-03-25T23:40:40.841Z,52.23
2019-03-25T23:43:06.684Z,52.20
2019-03-25T23:45:32.579Z,52.10
2019-03-25T23:47:58.666Z,51.97
2019-03-25T23:50:24.526Z,51.93
2019-03-25T23:52:50.371Z,51.92
2019-03-25T23:55:16.482Z,52.09
2019-03-25T23:57:42.337Z,52.16
